Time;durP1;ratioP1;P1;durP2;ratioP2;P2;SDS_P1;SDS_P2;PMS_P1;PMS_P2;Temp;Humidity;BMP_temperature;BMP_pressure;BME280_temperature;BME280_humidity;BME280_pressure;Samples;Min_cycle;Max_cycle;Signal;HPM_P1;HPM_P2
2023/08/05 00:00:50;;;;;;;5.73;4.50;;;23.10;61.00;;;;;;5046201;28;20221;-43
2023/08/05 00:03:15;;;;;;;5.90;4.47;;;23.10;61.90;;;;;;5044684;28;20200;-43
2023/08/05 00:05:42;;;;;;;6.07;5.47;;;23.20;61.40;;;;;;5047278;28;20189;-46
2023/08/05 00:08:08;;;;;;;6.13;4.90;;;23.30;61.00;;;;;;5050467;28;20293;-43
2023/08/05 00:10:33;;;;;;;7.40;4.70;;;23.30;60.70;;;;;;5043940;28;20485;-43
2023/08/05 00:12:59;;;;;;;5.07;4.20;;;23.30;60.30;;;;;;5044942;28;20276;-43
2023/08/05 00:15:25;;;;;;;5.27;4.40;;;23.40;60.50;;;;;;5038707;28;20961;-43
2023/08/05 00:17:50;;;;;;;5.13;4.73;;;23.40;60.40;;;;;;5049886;28;20270;-47
2023/08/05 00:20:16;;;;;;;6.57;5.20;;;23.40;60.20;;;;;;5044895;28;20239;-43
2023/08/05 00:22:41;;;;;;;5.57;4.83;;;23.50;60.20;;;;;;5054342;28;20242;-44
2023/08/05 00:25:07;;;;;;;5.73;5.10;;;23.50;60.10;;;;;;5051230;28;20192;-48
2023/08/05 00:27:33;;;;;;;4.63;4.23;;;23.60;59.90;;;;;;5048873;28;20203;-43
2023/08/05 00:29:59;;;;;;;6.63;4.80;;;23.60;59.70;;;;;;5052305;28;20824;-44
2023/08/05 00:32:27;;;;;;;4.27;3.93;;;23.60;59.80;;;;;;5053903;28;20523;-44
2023/08/05 00:34:52;;;;;;;5.67;4.63;;;23.70;59.90;;;;;;5049589;28;20240;-43
2023/08/05 00:37:18;;;;;;;7.20;4.60;;;23.70;59.70;;;;;;5044896;28;20805;-45
2023/08/05 00:39:43;;;;;;;5.97;4.77;;;23.70;59.40;;;;;;5049950;28;20614;-43
2023/08/05 00:42:09;;;;;;;6.60;4.40;;;23.70;59.40;;;;;;5042715;28;20221;-42
2023/08/05 00:44:35;;;;;;;5.07;4.57;;;23.70;59.40;;;;;;5051462;28;20606;-44
2023/08/05 00:47:00;;;;;;;5.47;4.87;;;23.60;59.40;;;;;;5049899;28;20197;-43
2023/08/05 00:49:26;;;;;;;5.03;4.10;;;23.60;59.40;;;;;;5050264;28;20247;-42
2023/08/05 00:51:53;;;;;;;4.97;4.30;;;23.60;59.40;;;;;;5041394;28;20204;-45
2023/08/05 00:54:20;;;;;;;6.40;5.37;;;23.60;59.50;;;;;;5048467;28;20284;-43
2023/08/05 00:56:46;;;;;;;5.57;4.53;;;23.50;59.50;;;;;;5051337;28;20439;-44
2023/08/05 00:59:12;;;;;;;6.17;4.40;;;23.50;59.70;;;;;;5053926;28;20419;-43
2023/08/05 01:01:38;;;;;;;5.20;4.70;;;23.40;59.60;;;;;;5051457;28;20327;-43
2023/08/05 01:04:04;;;;;;;5.93;4.40;;;23.50;59.70;;;;;;5048508;28;20991;-44
2023/08/05 01:06:30;;;;;;;6.37;4.80;;;23.40;59.70;;;;;;5048360;28;20242;-44
2023/08/05 01:08:57;;;;;;;5.43;4.63;;;23.40;59.70;;;;;;5050594;28;20275;-44
2023/08/05 01:11:23;;;;;;;4.60;4.20;;;23.50;59.80;;;;;;5043376;28;20493;-43
2023/08/05 01:13:48;;;;;;;5.23;4.30;;;23.50;59.70;;;;;;5049561;28;20451;-42
2023/08/05 01:16:14;;;;;;;4.70;4.30;;;23.50;59.70;;;;;;5047677;28;20467;-44
2023/08/05 01:18:40;;;;;;;6.50;4.70;;;23.50;59.70;;;;;;5052481;28;20652;-43
2023/08/05 01:21:13;;;;;;;5.33;4.80;;;23.40;59.70;;;;;;5047358;28;20254;-46
2023/08/05 01:24:28;;;;;;;6.83;4.43;;;23.50;60.00;;;;;;5048995;28;20524;-42
2023/08/05 01:26:55;;;;;;;6.50;4.53;;;23.50;60.00;;;;;;5044728;28;20458;-43
2023/08/05 01:29:22;;;;;;;5.07;4.10;;;23.50;60.10;;;;;;5050370;28;20443;-44
2023/08/05 01:31:51;;;;;;;5.00;4.10;;;23.50;59.90;;;;;;5049073;28;20455;-44
2023/08/05 01:34:17;;;;;;;5.07;4.70;;;23.50;59.60;;;;;;5050793;28;20471;-44
2023/08/05 01:36:42;;;;;;;6.07;4.30;;;23.50;59.60;;;;;;5048284;28;20438;-44
2023/08/05 01:39:08;;;;;;;5.50;4.43;;;23.50;59.50;;;;;;5051622;28;20200;-43
2023/08/05 01:41:33;;;;;;;6.70;4.27;;;23.50;59.50;;;;;;5048612;28;20636;-42
2023/08/05 01:43:59;;;;;;;5.60;4.53;;;23.50;59.30;;;;;;5048136;28;20197;-43
2023/08/05 01:46:24;;;;;;;4.83;4.10;;;23.40;59.40;;;;;;5048770;28;20188;-43
2023/08/05 01:48:50;;;;;;;4.73;4.23;;;23.40;59.70;;;;;;5047624;28;20238;-44
2023/08/05 01:51:16;;;;;;;5.10;4.70;;;23.40;60.00;;;;;;5049352;28;20193;-42
2023/08/05 01:53:41;;;;;;;8.60;4.60;;;23.40;60.10;;;;;;5044947;28;20200;-43
2023/08/05 01:56:07;;;;;;;5.17;4.47;;;23.40;60.20;;;;;;5044120;28;20197;-46
2023/08/05 01:58:32;;;;;;;4.43;4.13;;;23.50;60.10;;;;;;5046921;28;20214;-44
2023/08/05 02:00:58;;;;;;;4.83;4.33;;;23.50;60.10;;;;;;5045374;28;20254;-43
2023/08/05 02:03:23;;;;;;;5.27;4.57;;;23.50;59.80;;;;;;5046624;28;20280;-43
2023/08/05 02:05:49;;;;;;;6.00;4.60;;;23.50;59.60;;;;;;5051066;28;20239;-45
2023/08/05 02:08:15;;;;;;;5.50;4.63;;;23.50;59.60;;;;;;5046538;28;20193;-43
2023/08/05 02:10:41;;;;;;;6.63;4.37;;;23.40;59.40;;;;;;5046645;28;20196;-43
2023/08/05 02:13:07;;;;;;;4.27;3.87;;;23.40;59.50;;;;;;5049952;28;20548;-44
2023/08/05 02:15:32;;;;;;;4.83;4.00;;;23.40;59.60;;;;;;5048149;28;20446;-43
2023/08/05 02:17:58;;;;;;;4.50;4.20;;;23.40;59.60;;;;;;5048626;28;20224;-46
2023/08/05 02:20:23;;;;;;;5.13;4.60;;;23.40;59.60;;;;;;5046758;28;20212;-46
2023/08/05 02:22:49;;;;;;;5.33;4.30;;;23.40;59.70;;;;;;5050490;28;20197;-43
2023/08/05 02:25:15;;;;;;;6.37;4.17;;;23.30;59.80;;;;;;5050997;28;20246;-42
2023/08/05 02:27:40;;;;;;;10.10;4.80;;;23.30;59.90;;;;;;5047774;28;20557;-43
2023/08/05 02:30:06;;;;;;;9.00;4.30;;;23.20;60.10;;;;;;5047041;28;20213;-43
2023/08/05 02:32:32;;;;;;;11.70;4.60;;;23.30;60.50;;;;;;5048111;28;20211;-42
2023/08/05 02:34:57;;;;;;;3.90;3.60;;;23.40;60.10;;;;;;5049609;28;20887;-43
2023/08/05 02:37:23;;;;;;;4.97;4.47;;;23.40;59.60;;;;;;5048998;28;20184;-42
2023/08/05 02:39:48;;;;;;;5.70;4.40;;;23.40;59.40;;;;;;5049673;28;20271;-42
2023/08/05 02:42:14;;;;;;;5.37;4.47;;;23.30;59.30;;;;;;5045813;28;20231;-43
2023/08/05 02:44:40;;;;;;;7.40;4.83;;;23.20;59.50;;;;;;5041850;28;20197;-43
2023/08/05 02:47:05;;;;;;;4.83;4.40;;;22.90;59.70;;;;;;5040966;28;20193;-43
2023/08/05 02:49:32;;;;;;;6.33;4.70;;;22.80;60.00;;;;;;5048347;28;20670;-43
2023/08/05 02:51:57;;;;;;;5.70;5.20;;;22.70;60.20;;;;;;5048385;28;20257;-43
2023/08/05 02:54:23;;;;;;;5.23;4.80;;;22.50;60.80;;;;;;5048176;28;20557;-43
2023/08/05 02:56:49;;;;;;;7.77;5.23;;;22.40;61.20;;;;;;5046598;28;20279;-43
2023/08/05 02:59:14;;;;;;;5.50;5.00;;;22.30;61.40;;;;;;5043457;28;20192;-43
2023/08/05 03:01:40;;;;;;;8.67;5.07;;;22.30;61.60;;;;;;5045127;28;20310;-43
2023/08/05 03:04:05;;;;;;;6.97;4.70;;;22.30;61.80;;;;;;5048076;28;20266;-43
2023/08/05 03:06:31;;;;;;;7.47;5.37;;;22.20;61.80;;;;;;5047662;28;20192;-45
2023/08/05 03:08:57;;;;;;;6.00;5.50;;;22.20;62.00;;;;;;5054395;28;20196;-43
2023/08/05 03:11:22;;;;;;;5.17;4.67;;;22.20;62.10;;;;;;5044117;28;20192;-43
2023/08/05 03:13:48;;;;;;;5.40;4.83;;;22.20;62.10;;;;;;5051769;28;20242;-43
2023/08/05 03:16:14;;;;;;;7.83;4.57;;;22.30;62.00;;;;;;5047889;28;20197;-43
2023/08/05 03:18:40;;;;;;;5.73;5.23;;;22.30;62.00;;;;;;5046036;28;20184;-43
2023/08/05 03:21:06;;;;;;;6.60;4.80;;;22.30;61.90;;;;;;5049307;28;20512;-45
2023/08/05 03:23:32;;;;;;;6.43;5.57;;;22.30;61.80;;;;;;5046715;28;20439;-44
2023/08/05 03:25:58;;;;;;;8.00;4.80;;;22.30;61.80;;;;;;5043137;28;20204;-46
2023/08/05 03:28:23;;;;;;;5.40;4.90;;;22.30;62.00;;;;;;5054106;28;20439;-43
2023/08/05 03:30:49;;;;;;;8.00;5.03;;;22.30;62.00;;;;;;5049018;28;20246;-43
2023/08/05 03:33:14;;;;;;;6.67;5.37;;;22.30;62.00;;;;;;5044250;28;20201;-43
2023/08/05 03:35:44;;;;;;;6.47;5.30;;;22.30;61.80;;;;;;5050235;28;20196;-43
2023/08/05 03:38:09;;;;;;;5.87;5.27;;;22.40;61.90;;;;;;5047323;28;20181;-43
2023/08/05 03:40:35;;;;;;;5.30;4.80;;;22.30;61.90;;;;;;5051597;28;20849;-45
2023/08/05 03:43:01;;;;;;;10.73;5.30;;;22.20;62.20;;;;;;5048560;28;20600;-43
2023/08/05 03:45:26;;;;;;;8.27;4.87;;;22.20;62.30;;;;;;5052965;28;20185;-45
2023/08/05 03:47:53;;;;;;;8.93;4.83;;;22.30;63.00;;;;;;5052009;28;20443;-43
2023/08/05 03:50:20;;;;;;;6.03;5.30;;;22.20;62.50;;;;;;5052188;28;20751;-43
2023/08/05 03:52:49;;;;;;;8.50;5.97;;;22.20;62.60;;;;;;5054163;28;20479;-45
2023/08/05 03:55:16;;;;;;;7.23;5.40;;;22.30;61.80;;;;;;5049778;28;20474;-47
2023/08/05 03:57:41;;;;;;;9.90;5.30;;;22.30;61.60;;;;;;5043388;28;20436;-43
2023/08/05 04:00:11;;;;;;;6.87;4.73;;;22.20;61.80;;;;;;5049160;28;20459;-44
2023/08/05 04:02:37;;;;;;;6.73;6.00;;;22.20;61.80;;;;;;5053083;28;20196;-46
2023/08/05 04:05:04;;;;;;;6.60;5.20;;;22.10;62.00;;;;;;5052357;28;20451;-46
2023/08/05 04:07:30;;;;;;;5.20;4.70;;;22.10;62.50;;;;;;5051683;28;20866;-45
2023/08/05 04:09:56;;;;;;;9.50;5.27;;;22.00;62.70;;;;;;5052441;28;20443;-42
2023/08/05 04:12:22;;;;;;;7.10;5.70;;;21.90;62.70;;;;;;5046661;28;20946;-43
2023/08/05 04:14:50;;;;;;;7.33;5.73;;;21.90;62.80;;;;;;5051361;28;20201;-44
2023/08/05 04:17:16;;;;;;;6.47;5.63;;;21.90;63.30;;;;;;5049408;28;20284;-48
2023/08/05 04:19:42;;;;;;;5.63;5.07;;;21.90;63.30;;;;;;5052869;28;20903;-46
2023/08/05 04:22:08;;;;;;;6.97;5.93;;;21.80;63.50;;;;;;5049129;28;20236;-46
2023/08/05 04:24:34;;;;;;;7.43;5.67;;;21.80;63.70;;;;;;5052488;28;20809;-44
2023/08/05 04:27:00;;;;;;;7.90;5.67;;;21.80;63.80;;;;;;5053526;28;20208;-42
2023/08/05 04:29:25;;;;;;;5.60;5.07;;;21.70;63.90;;;;;;5043536;28;20439;-44
2023/08/05 04:31:52;;;;;;;6.53;5.93;;;21.70;64.00;;;;;;5042751;28;20239;-45
2023/08/05 04:34:18;;;;;;;5.57;5.07;;;21.60;64.10;;;;;;5044419;28;20232;-43
2023/08/05 04:36:50;;;;;;;9.27;6.50;;;21.60;64.20;;;;;;5047480;28;20482;-44
2023/08/05 04:39:19;;;;;;;5.70;5.20;;;21.50;64.50;;;;;;5041737;28;20513;-43
2023/08/05 04:41:45;;;;;;;5.93;5.33;;;21.30;65.30;;;;;;5050622;28;20506;-46
2023/08/05 04:44:11;;;;;;;6.60;5.70;;;21.30;65.30;;;;;;5044835;28;20431;-44
2023/08/05 04:46:37;;;;;;;6.83;5.93;;;21.20;65.60;;;;;;5046988;28;20181;-46
2023/08/05 04:49:08;;;;;;;6.13;5.63;;;21.00;66.20;;;;;;5051734;28;20448;-43
2023/08/05 04:51:37;;;;;;;5.10;4.60;;;21.00;66.50;;;;;;5044679;28;20252;-43
2023/08/05 04:54:04;;;;;;;6.67;5.50;;;21.10;66.50;;;;;;5037156;28;20440;-43
2023/08/05 04:56:30;;;;;;;6.60;5.63;;;21.20;66.10;;;;;;5043250;28;20568;-43
2023/08/05 04:58:55;;;;;;;8.07;5.50;;;21.20;65.90;;;;;;5049520;28;20451;-43
2023/08/05 05:01:21;;;;;;;6.40;5.80;;;21.30;65.60;;;;;;5048955;28;20233;-44
2023/08/05 05:03:48;;;;;;;7.40;5.97;;;21.30;65.60;;;;;;5043957;28;20302;-42
2023/08/05 05:06:14;;;;;;;6.10;5.43;;;21.30;65.60;;;;;;5044863;28;20574;-44
2023/08/05 05:08:40;;;;;;;10.90;5.70;;;21.30;65.30;;;;;;5039494;28;21026;-45
2023/08/05 05:11:07;;;;;;;9.50;5.40;;;21.30;65.60;;;;;;5041637;28;20471;-43
2023/08/05 05:13:33;;;;;;;6.40;5.23;;;21.30;66.20;;;;;;5046659;28;20196;-43
2023/08/05 05:15:58;;;;;;;12.67;5.47;;;21.30;65.40;;;;;;5050896;28;20804;-45
2023/08/05 05:18:24;;;;;;;6.80;5.90;;;21.40;65.20;;;;;;5044886;28;20200;-45
2023/08/05 05:20:50;;;;;;;7.17;5.80;;;21.30;65.20;;;;;;5039379;28;20232;-45
2023/08/05 05:23:16;;;;;;;10.40;4.90;;;21.30;65.30;;;;;;5050834;28;20192;-43
2023/08/05 05:25:42;;;;;;;7.30;5.60;;;21.50;66.20;;;;;;5047770;28;20802;-46
2023/08/05 05:28:07;;;;;;;6.63;5.80;;;21.60;65.50;;;;;;5049053;28;20435;-43
2023/08/05 05:30:36;;;;;;;7.33;5.17;;;21.70;65.00;;;;;;5049713;28;20443;-45
2023/08/05 05:33:02;;;;;;;8.20;5.40;;;21.80;64.50;;;;;;5044653;28;20189;-44
2023/08/05 05:35:29;;;;;;;8.37;5.77;;;21.90;64.10;;;;;;5047851;28;21044;-43
2023/08/05 05:37:54;;;;;;;7.43;5.47;;;21.90;63.80;;;;;;5044183;28;20231;-43
2023/08/05 05:40:20;;;;;;;6.73;5.17;;;21.90;63.80;;;;;;5047182;28;20463;-43
2023/08/05 05:42:48;;;;;;;7.80;5.40;;;22.00;63.50;;;;;;5051144;28;20700;-43
2023/08/05 05:45:14;;;;;;;5.73;5.23;;;22.00;63.00;;;;;;5046521;28;20288;-46
2023/08/05 05:47:40;;;;;;;6.70;5.53;;;22.10;62.90;;;;;;5043605;28;20573;-45
2023/08/05 05:50:06;;;;;;;9.77;5.27;;;22.00;62.70;;;;;;5041829;28;20550;-47
2023/08/05 05:52:32;;;;;;;5.70;5.10;;;22.00;62.80;;;;;;5042653;28;20474;-46
2023/08/05 05:54:57;;;;;;;5.00;4.60;;;22.00;63.10;;;;;;5051858;28;20489;-43
2023/08/05 05:57:23;;;;;;;7.13;4.87;;;22.00;63.00;;;;;;5048194;28;20606;-43
2023/08/05 05:59:49;;;;;;;5.23;4.80;;;21.90;63.00;;;;;;5046395;28;20189;-50
2023/08/05 06:02:14;;;;;;;8.10;4.77;;;22.00;63.20;;;;;;5044341;28;20225;-43
2023/08/05 06:04:42;;;;;;;6.73;5.13;;;21.90;63.30;;;;;;5044522;28;20258;-44
2023/08/05 06:07:07;;;;;;;5.37;4.57;;;21.80;63.30;;;;;;5046521;28;20209;-43
2023/08/05 06:09:33;;;;;;;8.00;4.53;;;21.80;63.40;;;;;;5050508;28;20447;-43
2023/08/05 06:11:59;;;;;;;8.73;5.43;;;21.90;63.60;;;;;;5045149;28;20224;-43
2023/08/05 06:14:25;;;;;;;6.40;4.73;;;21.70;64.00;;;;;;5049539;28;20199;-43
2023/08/05 06:16:50;;;;;;;5.10;4.60;;;21.70;64.00;;;;;;5047494;28;20711;-43
2023/08/05 06:19:16;;;;;;;5.33;4.83;;;21.80;63.90;;;;;;5048111;28;20466;-46
2023/08/05 06:21:41;;;;;;;6.07;4.70;;;21.90;63.80;;;;;;5044475;28;20298;-43
2023/08/05 06:24:07;;;;;;;6.00;4.97;;;22.00;63.60;;;;;;5049372;28;20204;-42
2023/08/05 06:26:33;;;;;;;5.10;4.60;;;22.10;63.20;;;;;;5047065;28;20279;-43
2023/08/05 06:28:59;;;;;;;5.20;4.80;;;22.20;63.30;;;;;;5033065;28;20196;-46
2023/08/05 06:31:24;;;;;;;4.93;4.43;;;22.20;63.10;;;;;;5041229;28;20948;-47
2023/08/05 06:33:50;;;;;;;4.60;4.00;;;22.20;62.70;;;;;;5044195;28;20235;-44
2023/08/05 06:36:16;;;;;;;5.73;5.17;;;22.20;62.30;;;;;;5046913;28;20189;-49
2023/08/05 06:38:41;;;;;;;5.80;5.20;;;22.20;62.30;;;;;;5050451;28;20291;-44
2023/08/05 06:41:07;;;;;;;8.53;5.40;;;22.00;62.50;;;;;;5049367;28;20224;-44
2023/08/05 06:43:32;;;;;;;7.13;4.70;;;21.90;62.50;;;;;;5052227;28;20341;-45
2023/08/05 06:45:58;;;;;;;5.80;5.30;;;22.00;63.00;;;;;;5051452;28;20561;-46
2023/08/05 06:48:24;;;;;;;6.80;4.30;;;22.20;62.60;;;;;;5049726;28;20663;-44
2023/08/05 06:50:49;;;;;;;4.83;4.30;;;22.30;62.30;;;;;;5049013;28;20629;-44
2023/08/05 06:53:15;;;;;;;5.63;4.40;;;22.30;62.30;;;;;;5052416;28;20186;-44
2023/08/05 06:55:40;;;;;;;5.00;4.60;;;22.20;62.00;;;;;;5049835;28;20241;-44
2023/08/05 06:58:06;;;;;;;5.30;4.80;;;22.20;61.80;;;;;;5052053;28;20197;-46
2023/08/05 07:00:32;;;;;;;5.50;4.70;;;22.20;62.10;;;;;;5049401;28;20239;-44
2023/08/05 07:02:58;;;;;;;5.60;4.40;;;22.20;61.70;;;;;;5050810;28;20204;-44
2023/08/05 07:05:23;;;;;;;6.07;4.50;;;22.20;61.20;;;;;;5051148;28;20215;-44
2023/08/05 07:07:49;;;;;;;4.87;4.47;;;22.20;61.70;;;;;;5049043;28;20843;-44
2023/08/05 07:10:16;;;;;;;5.87;3.70;;;22.30;61.60;;;;;;5044029;28;20566;-45
2023/08/05 07:12:41;;;;;;;4.67;4.20;;;22.40;61.30;;;;;;5050118;28;20451;-44
2023/08/05 07:15:07;;;;;;;3.80;3.50;;;22.50;61.10;;;;;;5050919;28;20526;-44
2023/08/05 07:17:33;;;;;;;4.10;3.70;;;22.70;61.30;;;;;;5051183;28;20228;-44
2023/08/05 07:19:59;;;;;;;4.23;3.83;;;22.80;61.20;;;;;;5051862;28;20227;-44
2023/08/05 07:22:25;;;;;;;7.67;4.47;;;22.90;60.80;;;;;;5049131;28;20258;-44
2023/08/05 07:24:54;;;;;;;5.07;3.90;;;23.00;60.30;;;;;;5048297;28;20942;-43
2023/08/05 07:27:20;;;;;;;5.07;4.03;;;22.90;60.00;;;;;;5049847;28;20287;-44
2023/08/05 07:29:46;;;;;;;4.20;3.90;;;23.00;60.40;;;;;;5051697;28;20458;-44
2023/08/05 07:32:11;;;;;;;6.20;4.43;;;23.10;60.10;;;;;;5050831;28;20192;-45
2023/08/05 07:34:37;;;;;;;4.80;4.30;;;23.10;59.60;;;;;;5050544;28;20241;-43
2023/08/05 07:37:03;;;;;;;4.70;4.30;;;23.10;59.70;;;;;;5050914;28;20226;-44
2023/08/05 07:39:33;;;;;;;4.63;3.87;;;23.20;59.40;;;;;;5051429;28;20207;-44
2023/08/05 07:42:00;;;;;;;4.50;4.20;;;23.30;59.10;;;;;;5050865;28;20237;-44
2023/08/05 07:44:26;;;;;;;5.60;4.30;;;23.40;59.20;;;;;;5050330;28;20444;-43
2023/08/05 07:46:52;;;;;;;6.10;5.33;;;23.50;59.10;;;;;;5040025;28;20534;-46
2023/08/05 07:49:18;;;;;;;4.40;4.00;;;23.40;59.40;;;;;;5048947;28;20283;-44
2023/08/05 07:51:46;;;;;;;3.60;3.30;;;23.50;59.20;;;;;;5050236;28;20467;-44
2023/08/05 07:54:13;;;;;;;5.53;4.13;;;23.60;58.50;;;;;;5049199;28;20197;-44
2023/08/05 07:56:40;;;;;;;4.70;4.30;;;23.50;58.50;;;;;;5048748;28;20446;-44
2023/08/05 07:59:06;;;;;;;4.20;3.80;;;23.60;58.60;;;;;;5050352;28;20449;-44
2023/08/05 08:01:33;;;;;;;3.70;3.40;;;23.60;58.60;;;;;;5049671;28;20487;-43
2023/08/05 08:04:02;;;;;;;3.80;3.50;;;23.70;58.30;;;;;;5049634;28;20197;-44
2023/08/05 08:06:28;;;;;;;4.37;3.97;;;23.80;58.10;;;;;;5049572;28;20456;-45
2023/08/05 08:08:54;;;;;;;5.03;3.90;;;23.80;57.90;;;;;;5049110;28;20450;-46
2023/08/05 08:11:20;;;;;;;4.17;3.77;;;23.90;58.00;;;;;;5051742;28;20446;-44
2023/08/05 08:13:46;;;;;;;5.53;3.80;;;23.90;57.90;;;;;;5052704;28;20246;-47
2023/08/05 08:16:13;;;;;;;6.47;4.10;;;24.00;58.00;;;;;;5050481;28;20446;-51
2023/08/05 08:18:39;;;;;;;4.93;4.27;;;24.10;57.80;;;;;;5054194;28;20242;-46
2023/08/05 08:21:05;;;;;;;5.20;3.90;;;24.10;56.90;;;;;;5052932;28;20478;-46
2023/08/05 08:23:31;;;;;;;4.30;3.90;;;24.10;56.90;;;;;;5047638;28;20196;-47
2023/08/05 08:25:58;;;;;;;4.10;3.70;;;24.30;57.60;;;;;;5053380;28;20435;-45
2023/08/05 08:28:23;;;;;;;5.60;3.93;;;24.50;57.30;;;;;;5051345;28;20196;-44
2023/08/05 08:30:51;;;;;;;4.53;4.13;;;24.60;57.00;;;;;;5052297;28;20443;-44
2023/08/05 08:33:17;;;;;;;4.30;3.90;;;24.80;56.00;;;;;;5051147;28;20235;-44
2023/08/05 08:35:42;;;;;;;4.43;4.03;;;24.90;55.90;;;;;;5052169;28;20475;-44
2023/08/05 08:38:08;;;;;;;5.73;3.67;;;25.10;55.80;;;;;;5052174;28;20181;-45
2023/08/05 08:40:35;;;;;;;4.10;3.70;;;25.20;55.00;;;;;;5053341;28;20224;-47
2023/08/05 08:43:02;;;;;;;3.60;3.27;;;25.40;55.10;;;;;;5051970;28;20200;-47
2023/08/05 08:45:33;;;;;;;3.53;3.20;;;25.50;54.40;;;;;;5048415;28;20443;-49
2023/08/05 08:48:00;;;;;;;4.20;3.90;;;25.70;54.30;;;;;;5050525;28;20477;-44
2023/08/05 08:50:27;;;;;;;3.70;3.40;;;25.80;54.30;;;;;;5046858;28;20435;-44
2023/08/05 08:52:57;;;;;;;5.87;3.20;;;25.80;54.10;;;;;;5053980;28;20845;-46
2023/08/05 08:55:24;;;;;;;4.33;3.87;;;26.00;54.00;;;;;;5040027;28;20443;-47
2023/08/05 08:57:50;;;;;;;5.87;4.00;;;26.10;52.40;;;;;;5048339;28;20439;-48
2023/08/05 09:00:16;;;;;;;4.47;3.93;;;26.20;51.40;;;;;;5048182;28;20442;-47
2023/08/05 09:02:42;;;;;;;3.83;2.70;;;26.30;51.80;;;;;;5048924;28;20189;-52
2023/08/05 09:05:08;;;;;;;3.67;2.80;;;26.50;52.70;;;;;;5046318;28;20290;-48
2023/08/05 09:07:35;;;;;;;3.63;3.33;;;26.60;52.10;;;;;;5040793;28;21100;-47
2023/08/05 09:10:04;;;;;;;5.63;2.67;;;26.70;51.40;;;;;;5037793;28;20203;-51
2023/08/05 09:12:31;;;;;;;4.83;2.93;;;26.80;51.80;;;;;;5041077;28;20505;-45
2023/08/05 09:14:57;;;;;;;4.93;3.87;;;27.00;50.90;;;;;;5044963;28;20455;-45
2023/08/05 09:17:23;;;;;;;3.87;3.13;;;27.00;49.60;;;;;;5047730;28;20444;-46
2023/08/05 09:19:48;;;;;;;3.50;3.20;;;27.00;49.40;;;;;;5047404;28;20930;-50
2023/08/05 09:22:14;;;;;;;3.23;2.73;;;27.00;49.20;;;;;;5050308;28;20608;-49
2023/08/05 09:24:39;;;;;;;3.37;2.90;;;27.00;49.60;;;;;;5043906;28;20242;-42
2023/08/05 09:27:05;;;;;;;3.27;2.93;;;27.00;48.80;;;;;;5048185;28;20271;-42
2023/08/05 09:29:31;;;;;;;3.10;2.83;;;26.70;50.10;;;;;;5050571;28;20600;-43
2023/08/05 09:31:57;;;;;;;3.37;3.00;;;26.80;49.50;;;;;;5051111;28;20510;-42
2023/08/05 09:34:31;;;;;;;4.63;3.50;;;27.10;49.40;;;;;;5045696;28;20220;-42
2023/08/05 09:36:57;;;;;;;6.37;3.00;;;27.20;48.40;;;;;;5051198;28;20665;-42
2023/08/05 09:39:23;;;;;;;2.80;2.60;;;27.40;48.10;;;;;;5045825;28;20526;-43
2023/08/05 09:41:51;;;;;;;2.93;2.27;;;27.50;48.50;;;;;;5050911;28;20591;-46
2023/08/05 09:44:17;;;;;;;3.00;2.80;;;27.70;49.30;;;;;;5036848;28;20458;-42
2023/08/05 09:46:46;;;;;;;2.77;2.60;;;27.90;49.10;;;;;;5044150;28;20813;-46
2023/08/05 09:49:17;;;;;;;3.03;2.73;;;27.90;47.80;;;;;;5042713;28;20443;-48
2023/08/05 09:51:43;;;;;;;2.40;2.20;;;27.80;47.40;;;;;;5044303;28;20469;-45
2023/08/05 09:54:14;;;;;;;3.30;3.00;;;28.10;47.20;;;;;;5043726;28;20907;-46
2023/08/05 09:56:40;;;;;;;2.70;2.50;;;28.40;45.80;;;;;;5045454;28;20451;-44
2023/08/05 09:59:07;;;;;;;4.40;2.87;;;28.40;44.20;;;;;;5043572;28;20446;-44
2023/08/05 10:01:36;;;;;;;2.77;2.57;;;28.50;45.80;;;;;;5041553;28;20497;-47
2023/08/05 10:04:02;;;;;;;2.70;2.50;;;28.50;44.70;;;;;;5043378;28;20432;-45
2023/08/05 10:06:29;;;;;;;4.63;2.70;;;28.60;44.60;;;;;;5043056;28;20478;-45
2023/08/05 10:08:56;;;;;;;3.60;2.93;;;28.80;45.50;;;;;;5046997;28;20463;-48
2023/08/05 10:11:23;;;;;;;2.83;2.53;;;29.10;45.30;;;;;;5050005;28;20451;-45
2023/08/05 10:13:52;;;;;;;3.90;3.20;;;29.20;44.50;;;;;;5046059;28;20447;-47
2023/08/05 10:16:19;;;;;;;2.97;2.50;;;29.20;44.60;;;;;;5047375;28;20442;-51
2023/08/05 10:18:46;;;;;;;2.70;2.50;;;29.20;44.40;;;;;;5048544;28;20452;-44
2023/08/05 10:21:12;;;;;;;3.07;2.30;;;29.10;43.70;;;;;;5046488;28;21127;-47
2023/08/05 10:23:37;;;;;;;3.87;2.67;;;29.10;44.40;;;;;;5048585;28;20438;-47
2023/08/05 10:26:04;;;;;;;4.13;2.37;;;29.20;44.40;;;;;;5047024;28;20280;-44
2023/08/05 10:28:38;;;;;;;2.60;2.40;;;29.20;44.20;;;;;;5050690;28;20201;-45
2023/08/05 10:31:21;;;;;;;4.70;2.90;;;29.20;44.00;;;;;;5044488;28;20537;-44
2023/08/05 10:34:13;;;;;;;2.40;2.30;;;29.20;43.50;;;;;;5037398;28;20479;-46
2023/08/05 10:36:47;;;;;;;3.50;2.80;;;29.00;43.60;;;;;;5038103;28;20949;-46
2023/08/05 10:39:40;;;;;;;2.63;2.00;;;28.90;43.90;;;;;;5046850;28;20442;-46
2023/08/05 10:42:20;;;;;;;2.47;2.27;;;28.90;43.10;;;;;;5041537;28;20497;-45
2023/08/05 10:44:49;;;;;;;4.00;2.57;;;28.70;42.90;;;;;;5044435;28;20463;-48
2023/08/05 10:47:22;;;;;;;6.03;4.00;;;28.60;43.60;;;;;;5044985;28;20453;-44
2023/08/05 10:49:55;;;;;;;4.77;3.90;;;28.60;44.20;;;;;;5048721;28;20519;-45
2023/08/05 10:52:21;;;;;;;3.30;3.00;;;28.50;44.00;;;;;;5049182;28;20538;-47
2023/08/05 10:54:48;;;;;;;3.60;3.00;;;28.60;45.00;;;;;;5050999;28;20447;-48
2023/08/05 10:57:44;;;;;;;3.40;2.73;;;28.70;44.10;;;;;;5048088;28;20280;-44
2023/08/05 11:00:17;;;;;;;3.43;3.10;;;28.50;44.10;;;;;;5049515;28;20454;-47
2023/08/05 11:02:43;;;;;;;3.30;2.43;;;28.50;44.70;;;;;;5048079;28;20965;-49
2023/08/05 11:05:09;;;;;;;2.73;2.53;;;28.60;45.20;;;;;;5049806;28;20484;-46
2023/08/05 11:07:38;;;;;;;3.80;2.63;;;28.70;44.80;;;;;;5042218;28;20192;-50
2023/08/05 11:10:05;;;;;;;2.70;2.37;;;28.90;44.80;;;;;;5045313;28;20431;-47
2023/08/05 11:12:31;;;;;;;2.50;2.30;;;29.00;44.60;;;;;;5042168;28;20447;-45
2023/08/05 11:14:57;;;;;;;2.53;2.30;;;29.00;43.50;;;;;;5035367;28;20448;-44
2023/08/05 11:17:22;;;;;;;2.37;2.17;;;29.10;44.10;;;;;;5042188;28;20195;-45
2023/08/05 11:19:56;;;;;;;2.30;2.10;;;29.20;44.00;;;;;;5040159;28;20447;-48
2023/08/05 11:22:30;;;;;;;4.13;2.10;;;29.30;44.10;;;;;;5039784;28;20599;-47
2023/08/05 11:25:03;;;;;;;2.50;2.17;;;29.30;44.00;;;;;;5038861;28;20533;-48
2023/08/05 11:27:33;;;;;;;3.70;2.33;;;29.40;43.40;;;;;;5045618;28;21037;-45
2023/08/05 11:30:10;;;;;;;2.07;1.97;;;29.50;43.60;;;;;;5051357;28;20438;-45
2023/08/05 11:32:58;;;;;;;2.20;2.10;;;29.40;43.30;;;;;;5044305;28;20430;-45
2023/08/05 11:35:25;;;;;;;2.63;2.10;;;29.50;43.50;;;;;;5043181;28;20471;-49
2023/08/05 11:37:51;;;;;;;3.30;2.97;;;29.50;43.20;;;;;;5048004;28;20447;-51
2023/08/05 11:40:16;;;;;;;2.67;2.20;;;29.60;43.30;;;;;;5043206;28;20733;-48
2023/08/05 11:42:43;;;;;;;2.60;2.00;;;29.60;42.90;;;;;;5039155;28;20229;-45
2023/08/05 11:45:13;;;;;;;2.97;1.90;;;29.70;40.30;;;;;;5045404;28;20275;-49
2023/08/05 11:47:40;;;;;;;1.80;1.70;;;29.70;40.90;;;;;;5041273;28;20475;-46
2023/08/05 11:50:06;;;;;;;3.33;2.23;;;29.80;41.10;;;;;;5043231;28;20481;-49
2023/08/05 11:52:32;;;;;;;2.50;2.30;;;29.90;40.80;;;;;;5044945;28;20848;-48
2023/08/05 11:55:01;;;;;;;2.07;1.77;;;29.90;41.80;;;;;;5042944;28;20452;-46
2023/08/05 11:57:27;;;;;;;2.80;2.23;;;30.00;42.20;;;;;;5037331;28;20195;-45
2023/08/05 11:59:56;;;;;;;2.83;2.13;;;29.90;39.00;;;;;;5041959;28;20810;-45
2023/08/05 12:02:24;;;;;;;2.23;2.03;;;29.80;38.30;;;;;;5047042;28;20850;-44
2023/08/05 12:04:51;;;;;;;3.03;2.00;;;29.70;38.30;;;;;;5050962;28;20458;-46
2023/08/05 12:07:19;;;;;;;1.90;1.80;;;29.60;38.30;;;;;;5047258;28;21286;-46
2023/08/05 12:09:45;;;;;;;2.43;2.23;;;29.60;38.60;;;;;;5044365;28;20446;-45
2023/08/05 12:12:18;;;;;;;3.47;2.37;;;29.30;38.30;;;;;;5048773;28;20447;-47
2023/08/05 12:14:44;;;;;;;2.07;1.97;;;29.10;39.60;;;;;;5048934;28;20453;-44
2023/08/05 12:17:10;;;;;;;2.80;2.27;;;29.10;39.30;;;;;;5043680;28;20449;-46
2023/08/05 12:19:38;;;;;;;2.17;2.07;;;29.30;40.10;;;;;;5047730;28;20832;-46
2023/08/05 12:22:04;;;;;;;2.30;2.10;;;29.40;39.70;;;;;;5045357;28;20577;-50
2023/08/05 12:24:30;;;;;;;2.60;2.40;;;29.50;39.40;;;;;;5041231;28;20538;-46
2023/08/05 12:26:55;;;;;;;3.63;1.90;;;29.60;39.10;;;;;;5046783;28;20188;-48
2023/08/05 12:29:21;;;;;;;2.43;2.27;;;29.50;39.90;;;;;;5040756;28;20230;-49
2023/08/05 12:31:46;;;;;;;4.43;1.87;;;29.60;40.00;;;;;;5047956;28;20203;-44
2023/08/05 12:34:12;;;;;;;2.17;1.97;;;29.70;39.70;;;;;;5051703;28;20315;-44
2023/08/05 12:36:38;;;;;;;2.50;2.30;;;29.70;39.20;;;;;;5043088;28;20551;-46
2023/08/05 12:39:03;;;;;;;2.67;2.47;;;29.60;39.20;;;;;;5045005;28;20192;-44
2023/08/05 12:41:29;;;;;;;2.63;2.43;;;29.60;39.40;;;;;;5047485;28;20580;-44
2023/08/05 12:43:54;;;;;;;2.57;2.37;;;29.60;39.80;;;;;;5040545;28;20192;-44